createdAt,value
2022-08-13T00:01:43.921Z,102089.50
2022-08-13T00:04:20.494Z,102087.06
2022-08-13T00:07:11.433Z,102090.00
2022-08-13T00:09:43.770Z,102088.25
2022-08-13T00:12:34.648Z,102088.56
2022-08-13T00:15:13.403Z,102082.63
2022-08-13T00:18:02.102Z,102086.84
2022-08-13T00:20:39.497Z,102078.16
2022-08-13T00:23:21.069Z,102079.22
2022-08-13T00:25:55.919Z,102080.06
2022-08-13T00:28:29.412Z,102076.00
2022-08-13T00:31:00.250Z,102074.22
2022-08-13T00:33:44.635Z,102071.13
2022-08-13T00:36:29.152Z,102067.63
2022-08-13T00:39:04.715Z,102068.16
2022-08-13T00:41:57.259Z,102071.88
2022-08-13T00:44:32.907Z,102069.97
2022-08-13T00:47:23.603Z,102069.31
2022-08-13T00:50:00.381Z,102076.59
2022-08-13T00:52:37.105Z,102068.66
2022-08-13T00:55:09.912Z,102074.91
2022-08-13T00:57:52.859Z,102069.63
2022-08-13T01:00:26.998Z,102067.38
2022-08-13T01:03:14.244Z,102061.88
2022-08-13T01:05:46.463Z,102058.06
2022-08-13T01:08:29.329Z,102065.28
2022-08-13T01:11:03.977Z,102061.13
2022-08-13T01:13:38.683Z,102059.97
2022-08-13T01:16:14.579Z,102058.66
2022-08-13T01:18:47.658Z,102059.06
2022-08-13T01:21:20.536Z,102069.06
2022-08-13T01:24:02.379Z,102059.25
2022-08-13T01:26:37.370Z,102055.47
2022-08-13T01:29:10.857Z,102061.72
2022-08-13T01:31:44.686Z,102061.41
2022-08-13T01:34:24.739Z,102065.50
2022-08-13T01:36:57.557Z,102055.84
2022-08-13T01:39:38.684Z,102057.38
2022-08-13T01:42:21.554Z,102051.41
2022-08-13T01:45:05.438Z,102056.81
2022-08-13T01:47:57.883Z,102052.06
2022-08-13T01:50:36.747Z,102052.47
2022-08-13T01:53:12.271Z,102052.06
2022-08-13T01:56:15.012Z,102055.41
2022-08-13T01:59:08.954Z,102052.00
2022-08-13T02:01:41.478Z,102053.81
2022-08-13T02:04:22.741Z,102056.84
2022-08-13T02:06:55.702Z,102044.47
2022-08-13T02:10:00.723Z,102042.16
2022-08-13T02:12:33.092Z,102046.41
2022-08-13T02:15:08.877Z,102052.19
2022-08-13T02:18:02.684Z,102050.03
2022-08-13T02:20:35.399Z,102047.09
2022-08-13T02:23:06.072Z,102053.16
2022-08-13T02:25:37.580Z,102047.59
2022-08-13T02:28:12.755Z,102054.78
2022-08-13T02:30:56.890Z,102047.03
2022-08-13T02:33:27.555Z,102051.94
2022-08-13T02:35:59.814Z,102047.78
2022-08-13T02:38:31.127Z,102048.44
2022-08-13T02:41:24.292Z,102047.69
2022-08-13T02:43:59.094Z,102051.66
2022-08-13T02:46:32.739Z,102047.94
2022-08-13T02:49:01.312Z,102045.78
2022-08-13T02:52:06.267Z,102044.56
2022-08-13T02:54:25.293Z,102038.31
2022-08-13T02:56:53.987Z,102037.75
2022-08-13T03:00:01.061Z,102042.88
2022-08-13T03:02:20.801Z,102041.75
2022-08-13T03:04:52.826Z,102040.16
2022-08-13T03:07:20.863Z,102046.38
2022-08-13T03:09:51.549Z,102042.50
2022-08-13T03:12:22.518Z,102049.31
2022-08-13T03:15:03.712Z,102047.22
2022-08-13T03:17:34.181Z,102045.16
2022-08-13T03:20:04.466Z,102040.25
2022-08-13T03:22:52.491Z,102033.16
2022-08-13T03:25:24.248Z,102039.19
2022-08-13T03:28:00.438Z,102036.44
2022-08-13T03:30:32.147Z,102035.84
2022-08-13T03:33:11.360Z,102037.75
2022-08-13T03:35:49.390Z,102029.91
2022-08-13T03:38:19.136Z,102035.66
2022-08-13T03:41:12.545Z,102032.63
2022-08-13T03:43:54.025Z,102039.97
2022-08-13T03:46:28.063Z,102033.25
2022-08-13T03:48:59.849Z,102038.59
2022-08-13T03:51:35.508Z,102032.59
2022-08-13T03:54:06.335Z,102036.72
2022-08-13T03:56:42.670Z,102026.78
2022-08-13T03:59:28.655Z,102028.63
2022-08-13T04:02:05.022Z,102022.47
2022-08-13T04:04:38.118Z,102028.63
2022-08-13T04:07:11.062Z,102030.13
2022-08-13T04:09:55.467Z,102034.94
2022-08-13T04:12:26.962Z,102033.84
2022-08-13T04:15:02.045Z,102038.53
2022-08-13T04:17:34.833Z,102031.22
2022-08-13T04:20:11.464Z,102023.69
2022-08-13T04:22:43.272Z,102027.94
2022-08-13T04:25:24.805Z,102023.47
2022-08-13T04:28:08.488Z,102026.47
2022-08-13T04:30:42.563Z,102019.03
2022-08-13T04:33:21.239Z,102020.84
2022-08-13T04:35:53.438Z,102027.53
2022-08-13T04:38:26.591Z,102023.06
2022-08-13T04:40:59.063Z,102014.78
2022-08-13T04:43:34.121Z,102016.78
2022-08-13T04:46:06.728Z,102014.66
2022-08-13T04:48:38.888Z,102015.09
2022-08-13T04:51:17.033Z,102011.78
2022-08-13T04:53:50.147Z,102015.03
2022-08-13T04:56:21.221Z,102002.56
2022-08-13T04:58:49.645Z,102002.41
2022-08-13T05:01:52.439Z,102003.94
2022-08-13T05:04:17.215Z,101999.13
2022-08-13T05:06:52.464Z,101992.00
2022-08-13T05:09:30.803Z,101993.41
2022-08-13T05:12:05.547Z,101994.84
2022-08-13T05:14:38.942Z,101986.03
2022-08-13T05:17:13.740Z,101988.72
2022-08-13T05:19:50.649Z,101997.31
2022-08-13T05:22:30.007Z,101995.03
2022-08-13T05:26:19.686Z,101991.53
2022-08-13T05:27:56.550Z,101989.75
2022-08-13T05:30:34.268Z,101999.81
2022-08-13T05:33:05.795Z,101985.50
2022-08-13T05:38:09.396Z,101980.84
2022-08-13T05:38:40.851Z,101981.56
2022-08-13T05:41:20.090Z,101981.72
2022-08-13T05:43:53.304Z,101976.38
2022-08-13T05:46:28.033Z,101976.06
2022-08-13T05:48:58.724Z,101972.97
2022-08-13T05:52:33.465Z,101972.16
2022-08-13T05:56:13.756Z,101970.97
2022-08-13T05:57:15.287Z,101969.78
2022-08-13T06:00:02.975Z,101970.81
2022-08-13T06:02:52.970Z,101966.94
2022-08-13T06:05:46.670Z,101971.44
2022-08-13T06:08:43.181Z,101966.38
2022-08-13T06:11:09.464Z,101966.09
2022-08-13T06:14:04.970Z,101963.28
2022-08-13T06:16:49.951Z,101958.34
2022-08-13T06:19:28.363Z,101963.06
2022-08-13T06:22:04.402Z,101948.34
2022-08-13T06:24:52.915Z,101957.44
2022-08-13T06:30:03.927Z,101952.25
2022-08-13T06:32:35.470Z,101959.72
2022-08-13T06:35:23.074Z,101959.16
2022-08-13T06:37:52.459Z,101954.88
2022-08-13T06:40:35.866Z,101955.78
2022-08-13T06:43:07.816Z,101951.56
2022-08-13T06:45:42.357Z,101946.63
2022-08-13T06:48:16.649Z,101950.72
2022-08-13T06:50:50.151Z,101959.44
2022-08-13T06:54:21.096Z,101950.13
2022-08-13T06:56:35.159Z,101953.66
2022-08-13T06:59:13.459Z,101947.84
2022-08-13T07:02:07.850Z,101950.00
2022-08-13T07:04:58.178Z,101958.59
2022-08-13T07:07:27.788Z,101959.25
2022-08-13T07:09:57.238Z,101956.41
2022-08-13T07:12:26.817Z,101952.81
2022-08-13T07:14:58.320Z,101956.84
2022-08-13T07:17:31.274Z,101952.81
2022-08-13T07:20:06.317Z,101949.41
2022-08-13T07:24:40.142Z,101953.09
2022-08-13T07:25:56.957Z,101941.91
2022-08-13T07:28:40.867Z,101946.19
2022-08-13T07:31:12.170Z,101947.69
2022-08-13T07:33:54.258Z,101948.00
2022-08-13T07:36:26.163Z,101942.19
2022-08-13T07:38:58.981Z,101945.69
2022-08-13T07:41:30.600Z,101942.44
2022-08-13T07:44:04.537Z,101940.59
2022-08-13T07:46:50.624Z,101947.03
2022-08-13T07:49:23.770Z,101940.47
2022-08-13T07:52:10.800Z,101942.28
2022-08-13T07:54:41.499Z,101938.75
2022-08-13T07:57:13.231Z,101940.38
2022-08-13T08:00:03.402Z,101945.84
2022-08-13T08:02:34.129Z,101945.09
2022-08-13T08:05:11.357Z,101945.63
2022-08-13T08:08:07.334Z,101947.88
2022-08-13T08:10:33.986Z,101946.91
2022-08-13T08:13:02.679Z,101938.81
2022-08-13T08:16:01.371Z,101942.38
2022-08-13T08:18:25.579Z,101940.53
2022-08-13T08:21:47.587Z,101938.69
2022-08-13T08:24:02.494Z,101936.22
2022-08-13T08:26:32.714Z,101943.41
2022-08-13T08:29:03.504Z,101940.56
2022-08-13T08:31:57.902Z,101940.72
2022-08-13T08:34:23.168Z,101948.09
2022-08-13T08:36:54.391Z,101941.25
2022-08-13T08:39:45.004Z,101937.34
2022-08-13T08:42:31.132Z,101942.72
2022-08-13T08:45:01.863Z,101942.22
2022-08-13T08:47:47.850Z,101947.78
2022-08-13T08:50:27.549Z,101948.28
2022-08-13T08:53:23.213Z,101957.88
2022-08-13T08:56:08.578Z,101951.16
2022-08-13T08:58:38.602Z,101946.94
2022-08-13T09:01:14.310Z,101954.19
2022-08-13T09:03:57.425Z,101945.59
2022-08-13T09:06:53.406Z,101943.75
2022-08-13T09:09:20.215Z,101941.69
2022-08-13T09:11:56.639Z,101943.63
2022-08-13T09:14:28.150Z,101938.66
2022-08-13T09:19:47.485Z,101947.47
2022-08-13T09:22:24.088Z,101944.31
2022-08-13T09:24:58.306Z,101939.84
2022-08-13T09:28:02.148Z,101938.56
2022-08-13T09:30:23.520Z,101939.81
2022-08-13T09:33:00.186Z,101934.81
2022-08-13T09:35:34.065Z,101932.41
2022-08-13T09:38:12.758Z,101936.97
2022-08-13T09:40:56.757Z,101935.03
2022-08-13T09:43:48.113Z,101928.44
2022-08-13T09:46:21.002Z,101922.34
2022-08-13T09:48:53.952Z,101922.72
2022-08-13T09:51:55.425Z,101920.91
2022-08-13T09:54:20.431Z,101919.41
2022-08-13T09:56:52.187Z,101916.88
2022-08-13T09:59:31.385Z,101912.34
2022-08-13T10:02:01.264Z,101913.03
2022-08-13T10:04:41.212Z,101905.97
2022-08-13T10:07:17.316Z,101906.97
2022-08-13T10:10:22.157Z,101895.75
2022-08-13T10:12:41.406Z,101896.13
2022-08-13T10:15:23.888Z,101900.59
2022-08-13T10:17:55.504Z,101893.41
2022-08-13T10:20:29.446Z,101895.00
2022-08-13T10:22:59.560Z,101893.69
2022-08-13T10:25:38.727Z,101893.00
2022-08-13T10:28:27.803Z,101884.75
2022-08-13T10:31:48.740Z,101884.47
2022-08-13T10:33:50.344Z,101884.19
2022-08-13T10:36:20.242Z,101886.06
2022-08-13T10:38:53.221Z,101887.94
2022-08-13T10:41:22.679Z,101888.00
2022-08-13T10:43:56.731Z,101882.91
2022-08-13T10:46:34.527Z,101881.09
2022-08-13T10:49:05.884Z,101886.53
2022-08-13T10:51:45.100Z,101887.09
2022-08-13T10:54:30.848Z,101886.63
2022-08-13T10:57:01.935Z,101886.06
2022-08-13T10:59:30.408Z,101880.00
2022-08-13T11:02:11.769Z,101883.44
2022-08-13T11:04:51.531Z,101884.56
2022-08-13T11:07:21.766Z,101888.00
2022-08-13T11:09:51.597Z,101886.78
2022-08-13T11:12:20.875Z,101877.56
2022-08-13T11:14:50.605Z,101872.75
2022-08-13T11:17:51.848Z,101871.41
2022-08-13T11:20:19.694Z,101874.44
2022-08-13T11:22:53.458Z,101871.59
2022-08-13T11:25:56.055Z,101865.63
2022-08-13T11:28:16.855Z,101870.63
2022-08-13T11:30:51.895Z,101863.06
2022-08-13T11:33:41.315Z,101864.47
2022-08-13T11:36:15.428Z,101867.69
2022-08-13T11:38:43.476Z,101854.28
2022-08-13T11:41:13.048Z,101863.69
2022-08-13T11:43:58.220Z,101859.06
2022-08-13T11:46:29.877Z,101866.03
2022-08-13T11:49:09.807Z,101857.34
2022-08-13T11:51:50.969Z,101859.00
2022-08-13T11:54:30.006Z,101857.47
2022-08-13T11:57:01.906Z,101858.56
2022-08-13T11:59:42.202Z,101849.34
2022-08-13T12:02:15.705Z,101856.25
2022-08-13T12:04:49.232Z,101853.34
2022-08-13T12:07:23.632Z,101836.28
2022-08-13T12:09:58.248Z,101837.16
2022-08-13T12:12:31.789Z,101836.78
2022-08-13T12:15:03.962Z,101832.59
2022-08-13T12:17:50.553Z,101831.38
2022-08-13T12:20:28.415Z,101836.75
2022-08-13T12:23:00.141Z,101833.50
2022-08-13T12:26:02.534Z,101836.03
2022-08-13T12:28:27.795Z,101828.34
2022-08-13T12:31:01.835Z,101830.53
2022-08-13T12:33:40.082Z,101820.94
2022-08-13T12:36:17.236Z,101829.31
2022-08-13T12:38:58.600Z,101825.59
2022-08-13T12:41:38.895Z,101822.81
2022-08-13T12:45:05.409Z,101822.06
2022-08-13T12:47:03.110Z,101823.94
2022-08-13T12:50:00.381Z,101821.72
2022-08-13T12:52:31.997Z,101811.38
2022-08-13T12:55:08.500Z,101807.66
2022-08-13T12:58:04.766Z,101809.50
2022-08-13T13:00:35.747Z,101810.38
2022-08-13T13:03:12.578Z,101811.66
2022-08-13T13:05:41.772Z,101811.72
2022-08-13T13:08:30.068Z,101805.06
2022-08-13T13:11:12.490Z,101817.13
2022-08-13T13:13:59.891Z,101805.69
2022-08-13T13:16:37.938Z,101799.72
2022-08-13T13:19:14.771Z,101802.22
2022-08-13T13:21:45.813Z,101798.16
2022-08-13T13:24:23.470Z,101795.19
2022-08-13T13:27:02.580Z,101798.53
2022-08-13T13:29:41.506Z,101801.59
2022-08-13T13:32:45.583Z,101796.19
2022-08-13T13:35:37.839Z,101785.56
2022-08-13T13:38:05.691Z,101788.66
2022-08-13T13:40:44.214Z,101797.16
2022-08-13T13:43:21.065Z,101785.84
2022-08-13T13:45:54.883Z,101792.09
2022-08-13T13:48:33.395Z,101794.69
2022-08-13T13:51:08.697Z,101796.75
2022-08-13T13:54:17.617Z,101787.72
2022-08-13T13:56:30.688Z,101784.00
2022-08-13T13:58:59.596Z,101787.94
2022-08-13T14:01:44.003Z,101778.22
2022-08-13T14:04:22.048Z,101780.91
2022-08-13T14:06:49.963Z,101784.94
2022-08-13T14:09:20.725Z,101780.03
2022-08-13T14:11:54.269Z,101780.03
2022-08-13T14:14:23.689Z,101780.19
2022-08-13T14:16:58.607Z,101781.75
2022-08-13T14:22:20.348Z,101776.09
2022-08-13T14:24:50.424Z,101774.59
2022-08-13T14:27:23.181Z,101770.41
2022-08-13T14:29:53.310Z,101771.06
2022-08-13T14:32:23.792Z,101768.72
2022-08-13T14:35:05.734Z,101773.41
2022-08-13T14:37:44.770Z,101765.81
2022-08-13T14:40:31.917Z,101765.84
2022-08-13T14:43:16.631Z,101765.78
2022-08-13T14:46:00.392Z,101762.28
2022-08-13T14:48:30.598Z,101761.97
2022-08-13T14:51:19.546Z,101757.59
2022-08-13T14:53:53.287Z,101760.66
2022-08-13T14:56:28.396Z,101757.88
2022-08-13T14:59:02.312Z,101756.28
2022-08-13T15:01:31.429Z,101749.22
2022-08-13T15:04:06.019Z,101744.19
2022-08-13T15:06:40.854Z,101751.53
2022-08-13T15:09:13.274Z,101741.50
2022-08-13T15:11:49.332Z,101743.91
2022-08-13T15:14:21.157Z,101738.16
2022-08-13T15:16:51.635Z,101737.88
2022-08-13T15:19:20.407Z,101739.72
2022-08-13T15:21:52.111Z,101733.69
2022-08-13T15:24:37.801Z,101736.66
2022-08-13T15:27:34.881Z,101735.59
2022-08-13T15:30:10.740Z,101730.28
2022-08-13T15:32:53.961Z,101720.59
2022-08-13T15:35:32.088Z,101721.97
2022-08-13T15:38:11.582Z,101721.81
2022-08-13T15:40:51.220Z,101717.72
2022-08-13T15:43:36.210Z,101710.47
2022-08-13T15:46:11.886Z,101712.13
2022-08-13T15:48:49.530Z,101706.28
2022-08-13T15:51:28.790Z,101708.13
2022-08-13T15:54:00.553Z,101697.25
2022-08-13T15:56:35.553Z,101695.81
2022-08-13T15:59:05.619Z,101700.31
2022-08-13T16:01:37.241Z,101697.59
2022-08-13T16:04:16.164Z,101703.72
2022-08-13T16:06:50.449Z,101696.47
2022-08-13T16:09:49.604Z,101697.78
2022-08-13T16:12:11.114Z,101691.06
2022-08-13T16:14:48.083Z,101691.81
2022-08-13T16:17:22.852Z,101680.81
2022-08-13T16:19:55.869Z,101692.84
2022-08-13T16:22:25.879Z,101688.38
2022-08-13T16:24:59.386Z,101686.78
2022-08-13T16:27:54.858Z,101687.91
2022-08-13T16:30:29.120Z,101690.16
2022-08-13T16:33:07.891Z,101681.22
2022-08-13T16:35:46.851Z,101674.50
2022-08-13T16:38:18.912Z,101684.19
2022-08-13T16:40:52.549Z,101681.50
2022-08-13T16:43:24.572Z,101673.38
2022-08-13T16:45:54.045Z,101672.69
2022-08-13T16:48:28.623Z,101679.16
2022-08-13T16:50:57.580Z,101669.47
2022-08-13T16:54:24.664Z,101676.53
2022-08-13T16:56:18.681Z,101675.91
2022-08-13T16:58:51.081Z,101668.38
2022-08-13T17:01:19.666Z,101666.72
2022-08-13T17:05:09.444Z,101667.50
2022-08-13T17:07:17.169Z,101668.03
2022-08-13T17:09:46.885Z,101675.44
2022-08-13T17:12:21.028Z,101671.75
2022-08-13T17:14:51.579Z,101664.28
2022-08-13T17:17:19.780Z,101664.75
2022-08-13T17:19:59.856Z,101667.50
2022-08-13T17:22:34.093Z,101672.72
2022-08-13T17:25:03.576Z,101664.50
2022-08-13T17:27:35.130Z,101667.22
2022-08-13T17:30:07.319Z,101673.44
2022-08-13T17:32:47.896Z,101665.69
2022-08-13T17:35:23.908Z,101665.88
2022-08-13T17:37:58.689Z,101674.94
2022-08-13T17:40:34.076Z,101666.53
2022-08-13T17:43:58.904Z,101676.28
2022-08-13T17:45:59.640Z,101680.16
2022-08-13T17:48:36.540Z,101683.69
2022-08-13T17:51:26.201Z,101676.25
2022-08-13T17:53:58.808Z,101678.72
2022-08-13T17:56:30.483Z,101689.25
2022-08-13T17:59:09.447Z,101684.13
2022-08-13T18:01:40.899Z,101687.59
2022-08-13T18:04:12.872Z,101690.78
2022-08-13T18:06:50.070Z,101692.59
2022-08-13T18:09:22.024Z,101694.69
2022-08-13T18:12:11.209Z,101695.97
2022-08-13T18:14:49.668Z,101693.25
2022-08-13T18:17:36.538Z,101698.69
2022-08-13T18:20:13.212Z,101700.19
2022-08-13T18:22:42.016Z,101703.03
2022-08-13T18:25:14.469Z,101706.78
2022-08-13T18:28:06.293Z,101708.00
2022-08-13T18:30:46.945Z,101714.28
2022-08-13T18:34:03.654Z,101717.56
2022-08-13T18:36:20.273Z,101727.78
2022-08-13T18:38:50.089Z,101726.56
2022-08-13T18:41:23.816Z,101721.81
2022-08-13T18:43:54.236Z,101718.81
2022-08-13T18:46:28.499Z,101723.91
2022-08-13T18:49:00.588Z,101725.28
2022-08-13T18:51:40.749Z,101724.53
2022-08-13T18:54:36.331Z,101730.47
2022-08-13T18:57:08.265Z,101731.66
2022-08-13T18:59:42.329Z,101735.03
2022-08-13T19:02:15.410Z,101733.63
2022-08-13T19:04:46.968Z,101739.84
2022-08-13T19:07:33.447Z,101739.13
2022-08-13T19:10:07.216Z,101742.38
2022-08-13T19:12:39.955Z,101748.41
2022-08-13T19:15:16.820Z,101748.13
2022-08-13T19:17:55.993Z,101747.69
2022-08-13T19:20:35.257Z,101743.16
2022-08-13T19:23:13.073Z,101742.59
2022-08-13T19:25:54.970Z,101747.22
2022-08-13T19:28:55.902Z,101750.16
2022-08-13T19:31:19.051Z,101757.63
2022-08-13T19:33:50.558Z,101756.63
2022-08-13T19:36:34.356Z,101756.47
2022-08-13T19:39:25.673Z,101758.13
2022-08-13T19:41:57.274Z,101757.03
2022-08-13T19:44:30.514Z,101762.03
2022-08-13T19:47:06.117Z,101762.22
2022-08-13T19:49:55.734Z,101760.72
2022-08-13T19:52:28.290Z,101756.00
2022-08-13T19:54:59.497Z,101758.97
2022-08-13T19:57:32.331Z,101760.53
2022-08-13T20:00:15.746Z,101763.44
2022-08-13T20:02:51.828Z,101760.94
2022-08-13T20:05:51.133Z,101761.38
2022-08-13T20:08:35.012Z,101760.50
2022-08-13T20:11:23.319Z,101768.56
2022-08-13T20:13:56.126Z,101768.13
2022-08-13T20:16:28.601Z,101771.31
2022-08-13T20:18:57.986Z,101777.13
2022-08-13T20:21:45.393Z,101778.22
2022-08-13T20:25:43.960Z,101781.59
2022-08-13T20:27:43.160Z,101777.13
2022-08-13T20:30:04.880Z,101780.06
2022-08-13T20:32:34.001Z,101776.88
2022-08-13T20:35:08.338Z,101777.66
2022-08-13T20:37:58.529Z,101778.44
2022-08-13T20:40:29.567Z,101783.59
2022-08-13T20:43:06.840Z,101782.78
2022-08-13T20:45:43.734Z,101778.66
2022-08-13T20:48:30.996Z,101782.41
2022-08-13T20:51:02.835Z,101782.25
2022-08-13T20:53:41.316Z,101783.09
2022-08-13T20:56:41.371Z,101791.66
2022-08-13T21:00:46.783Z,101786.16
2022-08-13T21:01:56.787Z,101784.09
2022-08-13T21:04:25.352Z,101779.31
2022-08-13T21:06:56.664Z,101791.81
2022-08-13T21:09:27.851Z,101786.72
2022-08-13T21:11:58.246Z,101783.69
2022-08-13T21:14:31.142Z,101783.44
2022-08-13T21:17:00.671Z,101785.06
2022-08-13T21:19:37.783Z,101791.16
2022-08-13T21:22:08.744Z,101782.22
2022-08-13T21:24:39.865Z,101782.97
2022-08-13T21:27:24.577Z,101792.41
2022-08-13T21:30:04.659Z,101790.72
2022-08-13T21:32:38.550Z,101794.44
2022-08-13T21:35:08.666Z,101785.31
2022-08-13T21:37:39.335Z,101790.94
2022-08-13T21:40:10.494Z,101795.72
2022-08-13T21:42:39.743Z,101785.75
2022-08-13T21:45:15.307Z,101789.22
2022-08-13T21:47:46.738Z,101793.44
2022-08-13T21:50:16.141Z,101794.91
2022-08-13T21:52:52.866Z,101793.22
2022-08-13T21:55:26.618Z,101791.53
2022-08-13T21:57:55.855Z,101788.47
2022-08-13T22:00:31.082Z,101786.00
2022-08-13T22:03:05.838Z,101789.34
2022-08-13T22:05:59.544Z,101790.50
2022-08-13T22:08:32.971Z,101786.72
2022-08-13T22:11:04.614Z,101784.66
2022-08-13T22:13:36.314Z,101784.81
2022-08-13T22:16:05.203Z,101778.78
2022-08-13T22:18:39.585Z,101778.03
2022-08-13T22:21:08.278Z,101773.59
2022-08-13T22:23:40.450Z,101778.34
2022-08-13T22:26:15.372Z,101780.06
2022-08-13T22:29:05.468Z,101775.91
2022-08-13T22:31:36.053Z,101782.44
2022-08-13T22:34:18.615Z,101772.66
2022-08-13T22:36:56.412Z,101783.41
2022-08-13T22:39:28.881Z,101773.75
2022-08-13T22:42:00.082Z,101773.50
2022-08-13T22:44:33.650Z,101773.28
2022-08-13T22:47:04.666Z,101773.06
2022-08-13T22:49:38.641Z,101771.81
2022-08-13T22:52:08.076Z,101768.25
2022-08-13T22:54:49.239Z,101768.66
2022-08-13T22:57:18.495Z,101773.44
2022-08-13T22:59:52.314Z,101772.66
2022-08-13T23:02:23.555Z,101770.53
2022-08-13T23:04:52.099Z,101761.31
2022-08-13T23:07:21.911Z,101759.91
2022-08-13T23:09:50.045Z,101763.56
2022-08-13T23:12:25.469Z,101762.53
2022-08-13T23:14:54.232Z,101755.38
2022-08-13T23:17:22.157Z,101752.91
2022-08-13T23:19:59.325Z,101752.25
2022-08-13T23:22:32.188Z,101747.44
2022-08-13T23:25:05.571Z,101752.72
2022-08-13T23:27:34.826Z,101749.81
2022-08-13T23:30:15.782Z,101750.19
2022-08-13T23:32:53.551Z,101748.66
2022-08-13T23:35:21.782Z,101753.00
2022-08-13T23:37:53.974Z,101752.63
2022-08-13T23:40:22.540Z,101750.09
2022-08-13T23:42:53.256Z,101748.66
2022-08-13T23:45:26.622Z,101748.09
2022-08-13T23:47:57.598Z,101736.59
2022-08-13T23:50:30.375Z,101740.94
2022-08-13T23:52:58.602Z,101740.94
2022-08-13T23:55:37.203Z,101741.97
2022-08-13T23:58:18.396Z,101738.97
